sensor_id;sensor_type;location;lat;lon;timestamp;pressure;altitude;pressure_sealevel;temperature;humidity
6216;BME280;3141;49.234;9.326;2022-12-07T00:00:37;99771.31;;;7.05;80.31
6216;BME280;3141;49.234;9.326;2022-12-07T00:01:23;99769.69;;;7.14;80.12
6216;BME280;3141;49.234;9.326;2022-12-07T00:02:05;99771.91;;;7.18;79.98
6216;BME280;3141;49.234;9.326;2022-12-07T00:02:48;99773.59;;;7.19;79.76
6216;BME280;3141;49.234;9.326;2022-12-07T00:03:30;99774.53;;;7.18;79.79
6216;BME280;3141;49.234;9.326;2022-12-07T00:04:14;99776.38;;;7.18;79.73
6216;BME280;3141;49.234;9.326;2022-12-07T00:04:57;99774.41;;;7.20;79.82
6216;BME280;3141;49.234;9.326;2022-12-07T00:05:39;99768.91;;;7.23;80.02
6216;BME280;3141;49.234;9.326;2022-12-07T00:06:22;99767.78;;;7.25;79.55
6216;BME280;3141;49.234;9.326;2022-12-07T00:07:04;99775.88;;;7.33;79.36
6216;BME280;3141;49.234;9.326;2022-12-07T00:07:46;99776.13;;;7.30;79.46
6216;BME280;3141;49.234;9.326;2022-12-07T00:08:29;99767.41;;;7.30;79.52
6216;BME280;3141;49.234;9.326;2022-12-07T00:09:15;99771.00;;;7.29;79.25
6216;BME280;3141;49.234;9.326;2022-12-07T00:09:57;99768.63;;;7.26;79.32
6216;BME280;3141;49.234;9.326;2022-12-07T00:10:39;99768.34;;;7.19;79.73
6216;BME280;3141;49.234;9.326;2022-12-07T00:11:22;99758.03;;;7.07;79.90
6216;BME280;3141;49.234;9.326;2022-12-07T00:12:05;99772.59;;;7.11;79.92
6216;BME280;3141;49.234;9.326;2022-12-07T00:12:47;99775.25;;;7.20;79.69
6216;BME280;3141;49.234;9.326;2022-12-07T00:13:31;99765.84;;;7.18;79.48
6216;BME280;3141;49.234;9.326;2022-12-07T00:14:15;99767.78;;;7.16;79.70
6216;BME280;3141;49.234;9.326;2022-12-07T00:14:57;99770.19;;;7.07;79.50
6216;BME280;3141;49.234;9.326;2022-12-07T00:15:40;99769.53;;;7.06;79.86
6216;BME280;3141;49.234;9.326;2022-12-07T00:16:24;99764.06;;;6.97;79.93
6216;BME280;3141;49.234;9.326;2022-12-07T00:17:07;99762.25;;;6.88;80.27
6216;BME280;3141;49.234;9.326;2022-12-07T00:17:49;99759.88;;;6.85;80.41
6216;BME280;3141;49.234;9.326;2022-12-07T00:18:32;99756.50;;;6.74;80.77
6216;BME280;3141;49.234;9.326;2022-12-07T00:19:14;99757.56;;;6.71;81.26
6216;BME280;3141;49.234;9.326;2022-12-07T00:19:57;99762.25;;;6.68;81.34
6216;BME280;3141;49.234;9.326;2022-12-07T00:20:39;99761.03;;;6.72;81.27
6216;BME280;3141;49.234;9.326;2022-12-07T00:21:24;99763.41;;;6.75;80.70
6216;BME280;3141;49.234;9.326;2022-12-07T00:22:07;99762.06;;;6.80;80.54
6216;BME280;3141;49.234;9.326;2022-12-07T00:22:49;99759.81;;;6.76;80.58
6216;BME280;3141;49.234;9.326;2022-12-07T00:23:32;99755.84;;;6.81;80.41
6216;BME280;3141;49.234;9.326;2022-12-07T00:24:15;99759.28;;;6.82;80.25
6216;BME280;3141;49.234;9.326;2022-12-07T00:24:57;99759.69;;;6.77;80.17
6216;BME280;3141;49.234;9.326;2022-12-07T00:25:39;99759.13;;;6.74;80.22
6216;BME280;3141;49.234;9.326;2022-12-07T00:26:24;99760.91;;;6.73;80.52
6216;BME280;3141;49.234;9.326;2022-12-07T00:27:07;99757.34;;;6.74;80.41
6216;BME280;3141;49.234;9.326;2022-12-07T00:27:49;99760.19;;;6.71;80.59
6216;BME280;3141;49.234;9.326;2022-12-07T00:28:32;99764.09;;;6.77;80.38
6216;BME280;3141;49.234;9.326;2022-12-07T00:29:18;99764.25;;;6.75;80.08
6216;BME280;3141;49.234;9.326;2022-12-07T00:30:01;99758.53;;;6.70;80.20
6216;BME280;3141;49.234;9.326;2022-12-07T00:30:43;99759.03;;;6.64;80.70
6216;BME280;3141;49.234;9.326;2022-12-07T00:31:28;99758.38;;;6.62;80.46
6216;BME280;3141;49.234;9.326;2022-12-07T00:32:10;99761.63;;;6.55;81.17
6216;BME280;3141;49.234;9.326;2022-12-07T00:32:52;99759.56;;;6.58;80.67
6216;BME280;3141;49.234;9.326;2022-12-07T00:33:35;99765.97;;;6.65;80.51
6216;BME280;3141;49.234;9.326;2022-12-07T00:34:20;99769.19;;;6.69;80.62
6216;BME280;3141;49.234;9.326;2022-12-07T00:35:03;99760.00;;;6.63;80.86
6216;BME280;3141;49.234;9.326;2022-12-07T00:35:45;99767.63;;;6.66;80.69
6216;BME280;3141;49.234;9.326;2022-12-07T00:36:27;99768.88;;;6.62;81.26
6216;BME280;3141;49.234;9.326;2022-12-07T00:37:10;99762.91;;;6.60;80.66
6216;BME280;3141;49.234;9.326;2022-12-07T00:37:52;99758.94;;;6.66;81.44
6216;BME280;3141;49.234;9.326;2022-12-07T00:38:36;99764.78;;;6.69;80.95
6216;BME280;3141;49.234;9.326;2022-12-07T00:39:19;99758.13;;;6.75;80.64
6216;BME280;3141;49.234;9.326;2022-12-07T00:40:01;99769.22;;;6.78;80.94
6216;BME280;3141;49.234;9.326;2022-12-07T00:40:43;99763.41;;;6.75;80.52
6216;BME280;3141;49.234;9.326;2022-12-07T00:41:27;99768.66;;;6.75;80.55
6216;BME280;3141;49.234;9.326;2022-12-07T00:42:10;99757.25;;;6.65;80.55
6216;BME280;3141;49.234;9.326;2022-12-07T00:42:52;99761.34;;;6.58;80.66
6216;BME280;3141;49.234;9.326;2022-12-07T00:43:34;99760.28;;;6.60;80.87
6216;BME280;3141;49.234;9.326;2022-12-07T00:44:17;99761.50;;;6.56;81.02
6216;BME280;3141;49.234;9.326;2022-12-07T00:44:59;99757.44;;;6.52;81.03
6216;BME280;3141;49.234;9.326;2022-12-07T00:45:41;99763.19;;;6.57;80.96
6216;BME280;3141;49.234;9.326;2022-12-07T00:46:24;99758.50;;;6.61;80.76
6216;BME280;3141;49.234;9.326;2022-12-07T00:47:07;99760.78;;;6.54;80.69
6216;BME280;3141;49.234;9.326;2022-12-07T00:47:49;99759.13;;;6.53;80.68
6216;BME280;3141;49.234;9.326;2022-12-07T00:48:32;99756.38;;;6.55;80.84
6216;BME280;3141;49.234;9.326;2022-12-07T00:49:14;99754.19;;;6.60;80.72
6216;BME280;3141;49.234;9.326;2022-12-07T00:49:56;99754.75;;;6.63;80.61
6216;BME280;3141;49.234;9.326;2022-12-07T00:50:38;99758.50;;;6.61;80.52
6216;BME280;3141;49.234;9.326;2022-12-07T00:51:23;99754.25;;;6.69;80.39
6216;BME280;3141;49.234;9.326;2022-12-07T00:52:05;99756.41;;;6.64;80.62
6216;BME280;3141;49.234;9.326;2022-12-07T00:52:47;99750.94;;;6.67;80.29
6216;BME280;3141;49.234;9.326;2022-12-07T00:53:30;99754.13;;;6.71;80.33
6216;BME280;3141;49.234;9.326;2022-12-07T00:54:13;99753.41;;;6.69;80.17
6216;BME280;3141;49.234;9.326;2022-12-07T00:54:55;99756.56;;;6.63;80.29
6216;BME280;3141;49.234;9.326;2022-12-07T00:55:37;99758.38;;;6.62;80.54
6216;BME280;3141;49.234;9.326;2022-12-07T00:56:21;99754.00;;;6.52;80.96
6216;BME280;3141;49.234;9.326;2022-12-07T00:57:04;99755.28;;;6.57;80.79
6216;BME280;3141;49.234;9.326;2022-12-07T00:57:46;99756.91;;;6.49;81.17
6216;BME280;3141;49.234;9.326;2022-12-07T00:58:28;99761.88;;;6.52;80.89
6216;BME280;3141;49.234;9.326;2022-12-07T00:59:13;99753.88;;;6.53;81.19
6216;BME280;3141;49.234;9.326;2022-12-07T00:59:57;99751.88;;;6.46;80.93
6216;BME280;3141;49.234;9.326;2022-12-07T01:00:41;99756.31;;;6.45;81.27
6216;BME280;3141;49.234;9.326;2022-12-07T01:01:27;99755.34;;;6.46;80.97
6216;BME280;3141;49.234;9.326;2022-12-07T01:02:09;99755.41;;;6.35;81.46
6216;BME280;3141;49.234;9.326;2022-12-07T01:02:52;99755.16;;;6.38;81.60
6216;BME280;3141;49.234;9.326;2022-12-07T01:03:34;99757.41;;;6.43;81.37
6216;BME280;3141;49.234;9.326;2022-12-07T01:04:17;99752.78;;;6.35;81.71
6216;BME280;3141;49.234;9.326;2022-12-07T01:04:59;99747.66;;;6.34;81.38
6216;BME280;3141;49.234;9.326;2022-12-07T01:05:52;99759.00;;;6.34;81.59
6216;BME280;3141;49.234;9.326;2022-12-07T01:06:35;99756.38;;;6.34;81.89
6216;BME280;3141;49.234;9.326;2022-12-07T01:07:17;99760.41;;;6.38;81.37
6216;BME280;3141;49.234;9.326;2022-12-07T01:08:00;99755.66;;;6.32;81.37
6216;BME280;3141;49.234;9.326;2022-12-07T01:08:42;99758.28;;;6.32;81.18
6216;BME280;3141;49.234;9.326;2022-12-07T01:09:25;99751.56;;;6.39;80.86
6216;BME280;3141;49.234;9.326;2022-12-07T01:10:07;99755.06;;;6.29;81.56
6216;BME280;3141;49.234;9.326;2022-12-07T01:11:01;99752.31;;;6.30;81.64
6216;BME280;3141;49.234;9.326;2022-12-07T01:11:44;99750.41;;;6.32;81.73
6216;BME280;3141;49.234;9.326;2022-12-07T01:12:26;99756.09;;;6.37;81.66
6216;BME280;3141;49.234;9.326;2022-12-07T01:13:08;99746.56;;;6.36;81.67
6216;BME280;3141;49.234;9.326;2022-12-07T01:13:52;99753.47;;;6.37;81.55
6216;BME280;3141;49.234;9.326;2022-12-07T01:14:35;99755.53;;;6.34;82.13
6216;BME280;3141;49.234;9.326;2022-12-07T01:15:18;99749.78;;;6.40;81.74
6216;BME280;3141;49.234;9.326;2022-12-07T01:16:02;99757.66;;;6.40;81.48
6216;BME280;3141;49.234;9.326;2022-12-07T01:16:45;99746.56;;;6.36;81.64
6216;BME280;3141;49.234;9.326;2022-12-07T01:17:28;99756.63;;;6.31;82.23
6216;BME280;3141;49.234;9.326;2022-12-07T01:18:10;99757.56;;;6.30;81.80
6216;BME280;3141;49.234;9.326;2022-12-07T01:18:55;99758.72;;;6.37;81.82
6216;BME280;3141;49.234;9.326;2022-12-07T01:19:37;99749.56;;;6.32;81.83
6216;BME280;3141;49.234;9.326;2022-12-07T01:20:20;99753.47;;;6.37;81.93
6216;BME280;3141;49.234;9.326;2022-12-07T01:21:09;99741.31;;;6.36;81.79
6216;BME280;3141;49.234;9.326;2022-12-07T01:21:51;99749.56;;;6.32;81.58
6216;BME280;3141;49.234;9.326;2022-12-07T01:22:40;99746.50;;;6.27;82.33
6216;BME280;3141;49.234;9.326;2022-12-07T01:23:23;99744.56;;;6.29;81.95
6216;BME280;3141;49.234;9.326;2022-12-07T01:24:08;99751.25;;;6.33;82.16
6216;BME280;3141;49.234;9.326;2022-12-07T01:24:51;99745.47;;;6.39;81.88
6216;BME280;3141;49.234;9.326;2022-12-07T01:25:33;99749.38;;;6.44;81.93
6216;BME280;3141;49.234;9.326;2022-12-07T01:26:18;99753.13;;;6.42;81.70
6216;BME280;3141;49.234;9.326;2022-12-07T01:27:00;99751.88;;;6.46;81.68
6216;BME280;3141;49.234;9.326;2022-12-07T01:27:43;99758.41;;;6.31;81.92
6216;BME280;3141;49.234;9.326;2022-12-07T01:28:26;99756.63;;;6.31;82.51
6216;BME280;3141;49.234;9.326;2022-12-07T01:29:08;99757.97;;;6.46;82.36
6216;BME280;3141;49.234;9.326;2022-12-07T01:29:51;99754.16;;;6.50;82.07
6216;BME280;3141;49.234;9.326;2022-12-07T01:30:33;99757.44;;;6.52;82.12
6216;BME280;3141;49.234;9.326;2022-12-07T01:31:17;99757.91;;;6.57;81.84
6216;BME280;3141;49.234;9.326;2022-12-07T01:32:00;99764.28;;;6.64;81.52
6216;BME280;3141;49.234;9.326;2022-12-07T01:32:42;99757.25;;;6.65;81.68
6216;BME280;3141;49.234;9.326;2022-12-07T01:33:30;99756.91;;;6.69;81.11
6216;BME280;3141;49.234;9.326;2022-12-07T01:34:13;99758.97;;;6.75;80.87
6216;BME280;3141;49.234;9.326;2022-12-07T01:34:55;99762.31;;;6.77;81.15
6216;BME280;3141;49.234;9.326;2022-12-07T01:35:38;99759.44;;;6.80;80.58
6216;BME280;3141;49.234;9.326;2022-12-07T01:36:22;99759.44;;;6.80;80.88
6216;BME280;3141;49.234;9.326;2022-12-07T01:37:05;99758.34;;;6.83;80.51
6216;BME280;3141;49.234;9.326;2022-12-07T01:37:48;99772.88;;;6.87;80.36
6216;BME280;3141;49.234;9.326;2022-12-07T01:38:31;99769.94;;;6.80;80.28
6216;BME280;3141;49.234;9.326;2022-12-07T01:39:14;99767.84;;;6.74;80.47
6216;BME280;3141;49.234;9.326;2022-12-07T01:39:56;99770.47;;;6.74;80.74
6216;BME280;3141;49.234;9.326;2022-12-07T01:40:38;99772.53;;;6.71;80.71
6216;BME280;3141;49.234;9.326;2022-12-07T01:41:21;99772.38;;;6.72;80.55
6216;BME280;3141;49.234;9.326;2022-12-07T01:42:03;99779.13;;;6.65;80.98
6216;BME280;3141;49.234;9.326;2022-12-07T01:42:45;99773.31;;;6.71;80.72
6216;BME280;3141;49.234;9.326;2022-12-07T01:43:29;99770.84;;;6.70;80.63
6216;BME280;3141;49.234;9.326;2022-12-07T01:44:28;99779.13;;;6.65;80.80
6216;BME280;3141;49.234;9.326;2022-12-07T01:46:00;99768.75;;;6.64;81.19
6216;BME280;3141;49.234;9.326;2022-12-07T01:46:48;99760.66;;;6.56;81.45
6216;BME280;3141;49.234;9.326;2022-12-07T01:47:31;99763.63;;;6.62;81.33
6216;BME280;3141;49.234;9.326;2022-12-07T01:48:16;99772.44;;;6.61;81.47
6216;BME280;3141;49.234;9.326;2022-12-07T01:49:01;99774.13;;;6.62;81.18
6216;BME280;3141;49.234;9.326;2022-12-07T01:49:47;99771.38;;;6.64;81.10
6216;BME280;3141;49.234;9.326;2022-12-07T01:50:30;99769.94;;;6.60;81.18
6216;BME280;3141;49.234;9.326;2022-12-07T01:51:15;99770.53;;;6.63;81.15
6216;BME280;3141;49.234;9.326;2022-12-07T01:52:05;99761.94;;;6.61;80.85
6216;BME280;3141;49.234;9.326;2022-12-07T01:52:51;99764.06;;;6.67;81.18
6216;BME280;3141;49.234;9.326;2022-12-07T01:53:38;99763.34;;;6.65;80.99
6216;BME280;3141;49.234;9.326;2022-12-07T01:54:22;99758.09;;;6.65;80.96
6216;BME280;3141;49.234;9.326;2022-12-07T01:55:08;99761.63;;;6.55;81.27
6216;BME280;3141;49.234;9.326;2022-12-07T01:55:52;99762.47;;;6.55;81.37
6216;BME280;3141;49.234;9.326;2022-12-07T01:56:36;99758.56;;;6.50;81.72
6216;BME280;3141;49.234;9.326;2022-12-07T01:57:20;99761.94;;;6.61;81.57
6216;BME280;3141;49.234;9.326;2022-12-07T01:58:03;99754.81;;;6.52;81.44
6216;BME280;3141;49.234;9.326;2022-12-07T01:58:46;99746.94;;;6.52;81.70
6216;BME280;3141;49.234;9.326;2022-12-07T01:59:29;99748.09;;;6.59;81.92
6216;BME280;3141;49.234;9.326;2022-12-07T02:00:12;99750.84;;;6.58;81.71
6216;BME280;3141;49.234;9.326;2022-12-07T02:00:55;99739.78;;;6.54;81.83
6216;BME280;3141;49.234;9.326;2022-12-07T02:01:37;99741.06;;;6.60;81.70
6216;BME280;3141;49.234;9.326;2022-12-07T02:02:23;99743.28;;;6.64;81.15
6216;BME280;3141;49.234;9.326;2022-12-07T02:03:15;99737.09;;;6.65;81.14
6216;BME280;3141;49.234;9.326;2022-12-07T02:04:00;99737.78;;;6.67;81.17
6216;BME280;3141;49.234;9.326;2022-12-07T02:04:43;99739.06;;;6.73;80.96
6216;BME280;3141;49.234;9.326;2022-12-07T02:05:26;99735.75;;;6.71;80.59
6216;BME280;3141;49.234;9.326;2022-12-07T02:06:10;99739.06;;;6.73;80.74
6216;BME280;3141;49.234;9.326;2022-12-07T02:06:54;99731.06;;;6.74;80.81
6216;BME280;3141;49.234;9.326;2022-12-07T02:07:38;99733.69;;;6.74;80.84
6216;BME280;3141;49.234;9.326;2022-12-07T02:08:20;99735.06;;;6.78;80.32
6216;BME280;3141;49.234;9.326;2022-12-07T02:09:03;99735.22;;;6.77;80.57
6216;BME280;3141;49.234;9.326;2022-12-07T02:09:46;99736.88;;;6.78;80.24
6216;BME280;3141;49.234;9.326;2022-12-07T02:10:30;99737.84;;;6.77;80.15
6216;BME280;3141;49.234;9.326;2022-12-07T02:11:13;99731.19;;;6.73;79.87
6216;BME280;3141;49.234;9.326;2022-12-07T02:11:55;99731.19;;;6.73;79.96
6216;BME280;3141;49.234;9.326;2022-12-07T02:12:38;99742.91;;;6.69;80.08
6216;BME280;3141;49.234;9.326;2022-12-07T02:13:26;99734.66;;;6.53;80.13
6216;BME280;3141;49.234;9.326;2022-12-07T02:14:10;99738.25;;;6.52;80.87
6216;BME280;3141;49.234;9.326;2022-12-07T02:14:53;99732.03;;;6.53;81.17
6216;BME280;3141;49.234;9.326;2022-12-07T02:16:07;99729.84;;;6.37;81.67
6216;BME280;3141;49.234;9.326;2022-12-07T02:18:03;99737.81;;;6.47;81.90
6216;BME280;3141;49.234;9.326;2022-12-07T02:20:49;99737.84;;;6.56;81.62
6216;BME280;3141;49.234;9.326;2022-12-07T02:24:47;99740.88;;;6.52;82.06
6216;BME280;3141;49.234;9.326;2022-12-07T02:26:50;99739.28;;;6.60;81.70
6216;BME280;3141;49.234;9.326;2022-12-07T02:28:00;99735.88;;;6.69;81.62
6216;BME280;3141;49.234;9.326;2022-12-07T02:29:10;99737.41;;;6.72;81.22
6216;BME280;3141;49.234;9.326;2022-12-07T02:30:42;99730.63;;;6.69;80.85
6216;BME280;3141;49.234;9.326;2022-12-07T02:31:27;99727.78;;;6.61;81.33
6216;BME280;3141;49.234;9.326;2022-12-07T02:33:27;99725.28;;;6.60;81.18
6216;BME280;3141;49.234;9.326;2022-12-07T02:34:22;99732.91;;;6.63;81.42
6216;BME280;3141;49.234;9.326;2022-12-07T02:35:13;99729.97;;;6.56;81.75
6216;BME280;3141;49.234;9.326;2022-12-07T02:36:08;99727.34;;;6.56;82.05
6216;BME280;3141;49.234;9.326;2022-12-07T02:36:57;99723.56;;;6.49;82.29
6216;BME280;3141;49.234;9.326;2022-12-07T02:38:55;99727.34;;;6.56;82.84
6216;BME280;3141;49.234;9.326;2022-12-07T02:39:53;99732.34;;;6.59;82.30
6216;BME280;3141;49.234;9.326;2022-12-07T02:41:27;99733.03;;;6.61;82.17
6216;BME280;3141;49.234;9.326;2022-12-07T02:42:17;99731.56;;;6.68;82.28
6216;BME280;3141;49.234;9.326;2022-12-07T02:43:09;99725.47;;;6.68;82.01
6216;BME280;3141;49.234;9.326;2022-12-07T02:43:56;99726.75;;;6.73;81.92
6216;BME280;3141;49.234;9.326;2022-12-07T02:44:39;99729.16;;;6.76;81.93
6216;BME280;3141;49.234;9.326;2022-12-07T02:45:25;99725.41;;;6.79;81.73
6216;BME280;3141;49.234;9.326;2022-12-07T02:46:20;99730.78;;;6.77;81.87
6216;BME280;3141;49.234;9.326;2022-12-07T02:47:07;99737.47;;;6.81;81.55
6216;BME280;3141;49.234;9.326;2022-12-07T02:47:53;99724.25;;;6.72;82.01
6216;BME280;3141;49.234;9.326;2022-12-07T02:48:38;99728.75;;;6.81;81.79
6216;BME280;3141;49.234;9.326;2022-12-07T02:49:23;99720.44;;;6.85;81.75
6216;BME280;3141;49.234;9.326;2022-12-07T02:50:07;99717.25;;;6.82;81.73
6216;BME280;3141;49.234;9.326;2022-12-07T02:50:51;99719.56;;;6.75;82.36
6216;BME280;3141;49.234;9.326;2022-12-07T02:51:39;99714.75;;;6.80;82.20
6216;BME280;3141;49.234;9.326;2022-12-07T02:52:22;99701.72;;;6.69;82.85
6216;BME280;3141;49.234;9.326;2022-12-07T02:53:05;99704.22;;;6.71;83.04
6216;BME280;3141;49.234;9.326;2022-12-07T02:53:47;99699.19;;;6.68;83.08
6216;BME280;3141;49.234;9.326;2022-12-07T02:54:29;99694.59;;;6.81;82.83
6216;BME280;3141;49.234;9.326;2022-12-07T02:55:12;99702.91;;;6.86;82.69
6216;BME280;3141;49.234;9.326;2022-12-07T02:55:57;99698.22;;;6.89;82.72
6216;BME280;3141;49.234;9.326;2022-12-07T02:57:40;99700.13;;;6.87;82.41
6216;BME280;3141;49.234;9.326;2022-12-07T03:01:00;99696.03;;;6.94;81.66
6216;BME280;3141;49.234;9.326;2022-12-07T03:02:39;99692.97;;;6.99;81.86
6216;BME280;3141;49.234;9.326;2022-12-07T03:03:26;99685.91;;;6.90;82.31
6216;BME280;3141;49.234;9.326;2022-12-07T03:04:50;99684.66;;;6.84;82.40
6216;BME280;3141;49.234;9.326;2022-12-07T03:06:53;99678.72;;;6.92;82.36
6216;BME280;3141;49.234;9.326;2022-12-07T03:08:45;99676.09;;;6.92;82.23
6216;BME280;3141;49.234;9.326;2022-12-07T03:09:43;99682.97;;;6.83;82.63
6216;BME280;3141;49.234;9.326;2022-12-07T03:10:48;99673.00;;;6.77;82.91
6216;BME280;3141;49.234;9.326;2022-12-07T03:11:48;99674.72;;;6.97;82.25
6216;BME280;3141;49.234;9.326;2022-12-07T03:14:26;99677.63;;;6.64;83.81
6216;BME280;3141;49.234;9.326;2022-12-07T03:15:16;99691.72;;;6.63;84.13
6216;BME280;3141;49.234;9.326;2022-12-07T03:16:15;99693.75;;;6.80;83.78
6216;BME280;3141;49.234;9.326;2022-12-07T03:17:10;99691.41;;;6.87;82.71
6216;BME280;3141;49.234;9.326;2022-12-07T03:17:56;99694.94;;;6.97;82.55
6216;BME280;3141;49.234;9.326;2022-12-07T03:18:53;99696.59;;;6.98;82.13
6216;BME280;3141;49.234;9.326;2022-12-07T03:19:37;99697.38;;;6.89;82.21
6216;BME280;3141;49.234;9.326;2022-12-07T03:20:22;99699.56;;;6.84;82.95
6216;BME280;3141;49.234;9.326;2022-12-07T03:21:11;99709.25;;;6.83;82.95
6216;BME280;3141;49.234;9.326;2022-12-07T03:21:59;99702.75;;;6.87;82.75
6216;BME280;3141;49.234;9.326;2022-12-07T03:22:44;99705.56;;;6.95;82.38
6216;BME280;3141;49.234;9.326;2022-12-07T03:23:30;99703.19;;;6.92;82.56
6216;BME280;3141;49.234;9.326;2022-12-07T03:24:17;99701.69;;;6.90;82.27
6216;BME280;3141;49.234;9.326;2022-12-07T03:25:05;99707.50;;;6.93;82.38
6216;BME280;3141;49.234;9.326;2022-12-07T03:25:53;99714.41;;;6.94;82.43
6216;BME280;3141;49.234;9.326;2022-12-07T03:26:42;99706.97;;;6.99;82.54
6216;BME280;3141;49.234;9.326;2022-12-07T03:27:42;99711.50;;;6.88;82.82
6216;BME280;3141;49.234;9.326;2022-12-07T03:28:30;99702.91;;;6.86;83.04
6216;BME280;3141;49.234;9.326;2022-12-07T03:29:25;99710.38;;;6.90;82.88
6216;BME280;3141;49.234;9.326;2022-12-07T03:30:13;99703.75;;;6.86;82.83
6216;BME280;3141;49.234;9.326;2022-12-07T03:31:02;99706.81;;;6.91;82.83
6216;BME280;3141;49.234;9.326;2022-12-07T03:31:49;99706.53;;;6.94;82.42
6216;BME280;3141;49.234;9.326;2022-12-07T03:32:43;99705.31;;;6.98;82.51
6216;BME280;3141;49.234;9.326;2022-12-07T03:33:50;99712.34;;;6.98;82.31
6216;BME280;3141;49.234;9.326;2022-12-07T03:34:51;99716.97;;;7.06;82.03
6216;BME280;3141;49.234;9.326;2022-12-07T03:36:00;99713.06;;;7.00;81.94
6216;BME280;3141;49.234;9.326;2022-12-07T03:36:49;99706.03;;;7.10;81.61
6216;BME280;3141;49.234;9.326;2022-12-07T03:37:36;99704.38;;;7.09;81.73
6216;BME280;3141;49.234;9.326;2022-12-07T03:38:35;99696.66;;;7.17;81.41
6216;BME280;3141;49.234;9.326;2022-12-07T03:39:46;99706.81;;;7.01;81.68
6216;BME280;3141;49.234;9.326;2022-12-07T03:40:46;99691.91;;;7.11;81.09
6216;BME280;3141;49.234;9.326;2022-12-07T03:41:31;99693.47;;;7.14;81.67
6216;BME280;3141;49.234;9.326;2022-12-07T03:42:16;99698.00;;;7.12;81.64
6216;BME280;3141;49.234;9.326;2022-12-07T03:42:58;99703.41;;;7.10;81.89
6216;BME280;3141;49.234;9.326;2022-12-07T03:43:44;99698.81;;;7.02;82.01
6216;BME280;3141;49.234;9.326;2022-12-07T03:44:26;99700.50;;;7.03;81.80
6216;BME280;3141;49.234;9.326;2022-12-07T03:45:09;99689.53;;;6.98;82.03
6216;BME280;3141;49.234;9.326;2022-12-07T03:48:28;99694.94;;;6.97;82.13
6216;BME280;3141;49.234;9.326;2022-12-07T03:50:43;99698.16;;;6.80;82.93
6216;BME280;3141;49.234;9.326;2022-12-07T03:51:40;99704.53;;;6.77;83.07
6216;BME280;3141;49.234;9.326;2022-12-07T03:52:31;99708.56;;;6.81;83.08
6216;BME280;3141;49.234;9.326;2022-12-07T03:53:25;99707.31;;;6.85;83.02
6216;BME280;3141;49.234;9.326;2022-12-07T03:54:19;99712.31;;;6.88;83.17
6216;BME280;3141;49.234;9.326;2022-12-07T03:55:10;99707.59;;;6.82;82.95
6216;BME280;3141;49.234;9.326;2022-12-07T03:55:54;99716.88;;;6.86;83.17
6216;BME280;3141;49.234;9.326;2022-12-07T03:56:37;99709.06;;;6.75;83.00
6216;BME280;3141;49.234;9.326;2022-12-07T03:57:21;99712.00;;;6.82;83.27
6216;BME280;3141;49.234;9.326;2022-12-07T03:58:11;99711.88;;;6.83;83.46
6216;BME280;3141;49.234;9.326;2022-12-07T03:58:54;99710.25;;;6.92;82.81
6216;BME280;3141;49.234;9.326;2022-12-07T03:59:37;99713.44;;;6.95;82.61
6216;BME280;3141;49.234;9.326;2022-12-07T04:00:20;99712.06;;;6.91;82.90
6216;BME280;3141;49.234;9.326;2022-12-07T04:01:03;99713.41;;;6.86;83.26
6216;BME280;3141;49.234;9.326;2022-12-07T04:01:52;99710.94;;;6.94;82.91
6216;BME280;3141;49.234;9.326;2022-12-07T04:02:35;99717.19;;;7.02;82.53
6216;BME280;3141;49.234;9.326;2022-12-07T04:03:18;99709.59;;;6.99;82.31
6216;BME280;3141;49.234;9.326;2022-12-07T04:04:00;99704.75;;;7.04;82.09
6216;BME280;3141;49.234;9.326;2022-12-07T04:04:43;99703.81;;;7.06;82.29
6216;BME280;3141;49.234;9.326;2022-12-07T04:05:25;99708.81;;;7.09;81.98
6216;BME280;3141;49.234;9.326;2022-12-07T04:06:08;99705.03;;;7.01;82.11
6216;BME280;3141;49.234;9.326;2022-12-07T04:06:50;99693.94;;;6.88;82.75
6216;BME280;3141;49.234;9.326;2022-12-07T04:07:33;99699.91;;;7.00;82.81
6216;BME280;3141;49.234;9.326;2022-12-07T04:08:15;99696.19;;;7.02;82.58
6216;BME280;3141;49.234;9.326;2022-12-07T04:08:57;99706.31;;;7.07;82.07
6216;BME280;3141;49.234;9.326;2022-12-07T04:09:40;99701.00;;;6.97;82.30
6216;BME280;3141;49.234;9.326;2022-12-07T04:10:22;99708.88;;;6.97;82.18
6216;BME280;3141;49.234;9.326;2022-12-07T04:11:04;99703.91;;;6.94;82.44
6216;BME280;3141;49.234;9.326;2022-12-07T04:11:47;99707.88;;;6.89;82.88
6216;BME280;3141;49.234;9.326;2022-12-07T04:12:29;99702.03;;;6.76;83.42
6216;BME280;3141;49.234;9.326;2022-12-07T04:13:12;99704.53;;;6.77;83.78
6216;BME280;3141;49.234;9.326;2022-12-07T04:13:54;99716.44;;;6.81;83.45
6216;BME280;3141;49.234;9.326;2022-12-07T04:14:55;99709.16;;;6.94;83.36
6216;BME280;3141;49.234;9.326;2022-12-07T04:15:37;99711.44;;;6.78;83.50
6216;BME280;3141;49.234;9.326;2022-12-07T04:16:20;99715.41;;;6.93;83.14
6216;BME280;3141;49.234;9.326;2022-12-07T04:17:02;99712.66;;;7.04;82.62
6216;BME280;3141;49.234;9.326;2022-12-07T04:17:44;99712.94;;;7.01;82.73
6216;BME280;3141;49.234;9.326;2022-12-07T04:18:27;99711.56;;;7.07;82.21
6216;BME280;3141;49.234;9.326;2022-12-07T04:19:09;99704.38;;;7.09;82.10
6216;BME280;3141;49.234;9.326;2022-12-07T04:19:51;99708.94;;;7.07;81.97
6216;BME280;3141;49.234;9.326;2022-12-07T04:20:34;99711.00;;;7.03;82.45
6216;BME280;3141;49.234;9.326;2022-12-07T04:21:16;99709.59;;;6.99;82.65
6216;BME280;3141;49.234;9.326;2022-12-07T04:22:01;99712.38;;;7.07;82.40
6216;BME280;3141;49.234;9.326;2022-12-07T04:22:43;99702.41;;;7.01;82.64
6216;BME280;3141;49.234;9.326;2022-12-07T04:23:26;99709.19;;;7.04;82.52
6216;BME280;3141;49.234;9.326;2022-12-07T04:24:08;99707.66;;;7.01;82.43
6216;BME280;3141;49.234;9.326;2022-12-07T04:24:50;99698.91;;;6.91;82.92
6216;BME280;3141;49.234;9.326;2022-12-07T04:25:33;99701.00;;;6.97;82.67
6216;BME280;3141;49.234;9.326;2022-12-07T04:26:15;99701.44;;;7.02;82.42
6216;BME280;3141;49.234;9.326;2022-12-07T04:26:57;99697.59;;;7.07;82.23
6216;BME280;3141;49.234;9.326;2022-12-07T04:27:40;99699.66;;;7.03;82.25
6216;BME280;3141;49.234;9.326;2022-12-07T04:28:22;99707.13;;;7.07;81.98
6216;BME280;3141;49.234;9.326;2022-12-07T04:29:05;99695.81;;;7.17;81.95
6216;BME280;3141;49.234;9.326;2022-12-07T04:29:47;99696.66;;;7.17;81.83
6216;BME280;3141;49.234;9.326;2022-12-07T04:30:29;99696.19;;;7.02;81.53
6216;BME280;3141;49.234;9.326;2022-12-07T04:31:12;99692.88;;;7.00;82.16
6216;BME280;3141;49.234;9.326;2022-12-07T04:31:54;99694.13;;;7.06;82.33
6216;BME280;3141;49.234;9.326;2022-12-07T04:32:36;99688.28;;;7.02;82.36
6216;BME280;3141;49.234;9.326;2022-12-07T04:33:19;99691.53;;;7.16;82.33
6216;BME280;3141;49.234;9.326;2022-12-07T04:34:02;99691.75;;;7.03;82.18
6216;BME280;3141;49.234;9.326;2022-12-07T04:34:45;99701.06;;;7.07;82.66
6216;BME280;3141;49.234;9.326;2022-12-07T04:35:27;99687.28;;;6.94;82.93